sensor_id;sensor_type;location;lat;lon;timestamp;P1;durP1;ratioP1;P2;durP2;ratioP2
6442;SDS011;3254;47.372;8.512;2024-03-08T00:01:59;123.57;;;39.88;;
6442;SDS011;3254;47.372;8.512;2024-03-08T00:04:25;127.30;;;40.57;;
6442;SDS011;3254;47.372;8.512;2024-03-08T00:06:50;132.93;;;40.73;;
6442;SDS011;3254;47.372;8.512;2024-03-08T00:09:15;110.03;;;38.47;;
6442;SDS011;3254;47.372;8.512;2024-03-08T00:11:41;106.73;;;36.13;;
6442;SDS011;3254;47.372;8.512;2024-03-08T00:14:06;120.80;;;37.83;;
6442;SDS011;3254;47.372;8.512;2024-03-08T00:16:33;135.50;;;40.90;;
6442;SDS011;3254;47.372;8.512;2024-03-08T00:18:59;120.43;;;39.47;;
6442;SDS011;3254;47.372;8.512;2024-03-08T00:21:24;130.63;;;40.20;;
6442;SDS011;3254;47.372;8.512;2024-03-08T00:23:49;124.97;;;38.63;;
6442;SDS011;3254;47.372;8.512;2024-03-08T00:26:15;111.30;;;38.00;;
6442;SDS011;3254;47.372;8.512;2024-03-08T00:28:40;132.03;;;38.60;;
6442;SDS011;3254;47.372;8.512;2024-03-08T00:31:05;127.17;;;39.83;;
6442;SDS011;3254;47.372;8.512;2024-03-08T00:33:31;120.10;;;36.25;;
6442;SDS011;3254;47.372;8.512;2024-03-08T00:35:57;114.90;;;37.37;;
6442;SDS011;3254;47.372;8.512;2024-03-08T00:38:22;100.50;;;34.93;;
6442;SDS011;3254;47.372;8.512;2024-03-08T00:40:48;108.17;;;35.57;;
6442;SDS011;3254;47.372;8.512;2024-03-08T00:43:13;97.13;;;35.20;;
6442;SDS011;3254;47.372;8.512;2024-03-08T00:45:39;102.63;;;35.37;;
6442;SDS011;3254;47.372;8.512;2024-03-08T00:48:07;101.88;;;35.10;;
6442;SDS011;3254;47.372;8.512;2024-03-08T00:50:33;110.87;;;36.93;;
6442;SDS011;3254;47.372;8.512;2024-03-08T00:52:58;129.43;;;38.23;;
6442;SDS011;3254;47.372;8.512;2024-03-08T00:55:24;130.82;;;41.58;;
6442;SDS011;3254;47.372;8.512;2024-03-08T00:57:50;138.20;;;42.23;;
6442;SDS011;3254;47.372;8.512;2024-03-08T01:00:15;125.67;;;42.40;;
6442;SDS011;3254;47.372;8.512;2024-03-08T01:02:41;134.07;;;44.00;;
6442;SDS011;3254;47.372;8.512;2024-03-08T01:05:07;147.20;;;46.57;;
6442;SDS011;3254;47.372;8.512;2024-03-08T01:07:34;145.85;;;43.22;;
6442;SDS011;3254;47.372;8.512;2024-03-08T01:10:00;186.18;;;47.88;;
6442;SDS011;3254;47.372;8.512;2024-03-08T01:12:26;167.27;;;46.95;;
6442;SDS011;3254;47.372;8.512;2024-03-08T01:14:51;167.00;;;45.90;;
6442;SDS011;3254;47.372;8.512;2024-03-08T01:17:17;180.00;;;48.80;;
6442;SDS011;3254;47.372;8.512;2024-03-08T01:19:42;168.73;;;47.63;;
6442;SDS011;3254;47.372;8.512;2024-03-08T01:22:09;190.45;;;48.72;;
6442;SDS011;3254;47.372;8.512;2024-03-08T01:24:35;161.37;;;49.23;;
6442;SDS011;3254;47.372;8.512;2024-03-08T01:27:00;184.50;;;49.60;;
6442;SDS011;3254;47.372;8.512;2024-03-08T01:29:27;153.45;;;46.00;;
6442;SDS011;3254;47.372;8.512;2024-03-08T01:31:54;178.95;;;50.08;;
6442;SDS011;3254;47.372;8.512;2024-03-08T01:34:19;173.17;;;46.70;;
6442;SDS011;3254;47.372;8.512;2024-03-08T01:36:45;179.90;;;50.10;;
6442;SDS011;3254;47.372;8.512;2024-03-08T01:39:11;201.97;;;51.70;;
6442;SDS011;3254;47.372;8.512;2024-03-08T01:41:36;186.17;;;49.63;;
6442;SDS011;3254;47.372;8.512;2024-03-08T01:44:02;191.57;;;50.30;;
6442;SDS011;3254;47.372;8.512;2024-03-08T01:46:28;181.82;;;50.72;;
6442;SDS011;3254;47.372;8.512;2024-03-08T01:48:53;196.13;;;51.10;;
6442;SDS011;3254;47.372;8.512;2024-03-08T01:51:19;176.03;;;46.70;;
6442;SDS011;3254;47.372;8.512;2024-03-08T01:53:45;158.57;;;47.27;;
6442;SDS011;3254;47.372;8.512;2024-03-08T01:56:11;173.23;;;48.10;;
6442;SDS011;3254;47.372;8.512;2024-03-08T01:58:38;193.77;;;51.28;;
6442;SDS011;3254;47.372;8.512;2024-03-08T02:01:07;206.57;;;53.20;;
6442;SDS011;3254;47.372;8.512;2024-03-08T02:03:34;186.45;;;52.92;;
6442;SDS011;3254;47.372;8.512;2024-03-08T02:05:59;186.23;;;50.27;;
6442;SDS011;3254;47.372;8.512;2024-03-08T02:08:25;191.17;;;53.07;;
6442;SDS011;3254;47.372;8.512;2024-03-08T02:10:50;191.17;;;52.10;;
6442;SDS011;3254;47.372;8.512;2024-03-08T02:13:16;192.90;;;50.30;;
6442;SDS011;3254;47.372;8.512;2024-03-08T02:15:57;185.30;;;51.87;;
6442;SDS011;3254;47.372;8.512;2024-03-08T02:18:27;194.55;;;53.75;;
6442;SDS011;3254;47.372;8.512;2024-03-08T02:23:38;169.98;;;48.42;;
6442;SDS011;3254;47.372;8.512;2024-03-08T02:26:03;171.80;;;49.40;;
6442;SDS011;3254;47.372;8.512;2024-03-08T02:28:29;166.93;;;49.60;;
6442;SDS011;3254;47.372;8.512;2024-03-08T02:30:55;169.83;;;47.37;;
6442;SDS011;3254;47.372;8.512;2024-03-08T02:33:21;157.93;;;46.30;;
6442;SDS011;3254;47.372;8.512;2024-03-08T02:35:47;156.77;;;45.43;;
6442;SDS011;3254;47.372;8.512;2024-03-08T02:38:17;147.13;;;44.30;;
6442;SDS011;3254;47.372;8.512;2024-03-08T02:40:44;124.28;;;42.40;;
6442;SDS011;3254;47.372;8.512;2024-03-08T02:43:10;142.02;;;42.92;;
6442;SDS011;3254;47.372;8.512;2024-03-08T02:45:36;127.00;;;41.63;;
6442;SDS011;3254;47.372;8.512;2024-03-08T02:48:02;143.53;;;43.83;;
6442;SDS011;3254;47.372;8.512;2024-03-08T02:50:28;108.03;;;38.63;;
6442;SDS011;3254;47.372;8.512;2024-03-08T02:52:53;112.37;;;40.37;;
6442;SDS011;3254;47.372;8.512;2024-03-08T02:55:19;106.20;;;38.77;;
6442;SDS011;3254;47.372;8.512;2024-03-08T02:57:44;114.83;;;41.00;;
6442;SDS011;3254;47.372;8.512;2024-03-08T03:00:12;113.07;;;38.50;;
6442;SDS011;3254;47.372;8.512;2024-03-08T03:02:38;105.27;;;38.83;;
6442;SDS011;3254;47.372;8.512;2024-03-08T03:05:03;99.83;;;35.97;;
6442;SDS011;3254;47.372;8.512;2024-03-08T03:07:31;92.63;;;35.95;;
6442;SDS011;3254;47.372;8.512;2024-03-08T03:09:58;84.60;;;34.50;;
6442;SDS011;3254;47.372;8.512;2024-03-08T03:12:25;90.03;;;35.28;;
6442;SDS011;3254;47.372;8.512;2024-03-08T03:14:50;92.30;;;35.27;;
6442;SDS011;3254;47.372;8.512;2024-03-08T03:17:15;94.07;;;36.00;;
6442;SDS011;3254;47.372;8.512;2024-03-08T03:19:41;95.53;;;33.50;;
6442;SDS011;3254;47.372;8.512;2024-03-08T03:22:07;95.40;;;34.88;;
6442;SDS011;3254;47.372;8.512;2024-03-08T03:24:34;87.25;;;35.20;;
6442;SDS011;3254;47.372;8.512;2024-03-08T03:27:03;89.28;;;33.97;;
6442;SDS011;3254;47.372;8.512;2024-03-08T03:29:36;86.93;;;35.28;;
6442;SDS011;3254;47.372;8.512;2024-03-08T03:32:05;95.30;;;34.20;;
6442;SDS011;3254;47.372;8.512;2024-03-08T03:34:32;85.57;;;33.83;;
6442;SDS011;3254;47.372;8.512;2024-03-08T03:37:00;85.80;;;33.70;;
6442;SDS011;3254;47.372;8.512;2024-03-08T03:39:27;83.07;;;33.17;;
6442;SDS011;3254;47.372;8.512;2024-03-08T03:41:56;77.32;;;33.05;;
6442;SDS011;3254;47.372;8.512;2024-03-08T03:44:21;67.80;;;30.27;;
6442;SDS011;3254;47.372;8.512;2024-03-08T03:46:48;74.25;;;30.50;;
6442;SDS011;3254;47.372;8.512;2024-03-08T03:49:15;67.80;;;31.25;;
6442;SDS011;3254;47.372;8.512;2024-03-08T03:51:41;61.10;;;29.10;;
6442;SDS011;3254;47.372;8.512;2024-03-08T03:54:06;64.70;;;29.77;;
6442;SDS011;3254;47.372;8.512;2024-03-08T03:56:32;65.20;;;28.55;;
6442;SDS011;3254;47.372;8.512;2024-03-08T03:58:57;61.67;;;27.97;;
6442;SDS011;3254;47.372;8.512;2024-03-08T04:01:23;59.07;;;27.43;;
6442;SDS011;3254;47.372;8.512;2024-03-08T04:03:49;66.77;;;29.33;;
6442;SDS011;3254;47.372;8.512;2024-03-08T04:06:14;69.27;;;28.77;;
6442;SDS011;3254;47.372;8.512;2024-03-08T04:08:40;62.30;;;27.13;;
6442;SDS011;3254;47.372;8.512;2024-03-08T04:11:06;62.40;;;28.08;;
6442;SDS011;3254;47.372;8.512;2024-03-08T04:13:32;66.97;;;27.95;;
6442;SDS011;3254;47.372;8.512;2024-03-08T04:15:57;57.20;;;27.13;;
6442;SDS011;3254;47.372;8.512;2024-03-08T04:18:23;64.40;;;28.73;;
6442;SDS011;3254;47.372;8.512;2024-03-08T04:20:48;58.77;;;27.57;;
6442;SDS011;3254;47.372;8.512;2024-03-08T04:23:14;68.57;;;27.77;;
6442;SDS011;3254;47.372;8.512;2024-03-08T04:25:40;69.88;;;28.70;;
6442;SDS011;3254;47.372;8.512;2024-03-08T04:28:07;59.65;;;29.15;;
6442;SDS011;3254;47.372;8.512;2024-03-08T04:30:35;58.40;;;27.02;;
6442;SDS011;3254;47.372;8.512;2024-03-08T04:33:02;60.67;;;27.70;;
6442;SDS011;3254;47.372;8.512;2024-03-08T04:35:28;64.72;;;26.10;;
6442;SDS011;3254;47.372;8.512;2024-03-08T04:37:54;57.63;;;26.57;;
6442;SDS011;3254;47.372;8.512;2024-03-08T04:40:19;61.23;;;29.47;;
6442;SDS011;3254;47.372;8.512;2024-03-08T04:42:44;59.07;;;27.67;;
6442;SDS011;3254;47.372;8.512;2024-03-08T04:45:10;63.63;;;28.10;;
6442;SDS011;3254;47.372;8.512;2024-03-08T04:47:38;64.30;;;28.92;;
6442;SDS011;3254;47.372;8.512;2024-03-08T04:50:04;65.77;;;26.97;;
6442;SDS011;3254;47.372;8.512;2024-03-08T04:52:30;58.88;;;27.88;;
6442;SDS011;3254;47.372;8.512;2024-03-08T04:54:55;52.50;;;26.50;;
6442;SDS011;3254;47.372;8.512;2024-03-08T04:57:21;53.60;;;25.57;;
6442;SDS011;3254;47.372;8.512;2024-03-08T04:59:46;59.70;;;26.40;;
6442;SDS011;3254;47.372;8.512;2024-03-08T05:02:12;53.83;;;25.27;;
6442;SDS011;3254;47.372;8.512;2024-03-08T05:04:37;52.13;;;26.07;;
6442;SDS011;3254;47.372;8.512;2024-03-08T05:07:03;52.37;;;26.27;;
6442;SDS011;3254;47.372;8.512;2024-03-08T05:09:29;50.92;;;25.73;;
6442;SDS011;3254;47.372;8.512;2024-03-08T05:11:56;56.15;;;25.60;;
6442;SDS011;3254;47.372;8.512;2024-03-08T05:14:23;50.95;;;25.88;;
6442;SDS011;3254;47.372;8.512;2024-03-08T05:16:50;56.90;;;27.15;;
6442;SDS011;3254;47.372;8.512;2024-03-08T05:19:15;47.13;;;23.40;;
6442;SDS011;3254;47.372;8.512;2024-03-08T05:21:44;51.30;;;26.35;;
6442;SDS011;3254;47.372;8.512;2024-03-08T05:24:10;46.72;;;26.55;;
6442;SDS011;3254;47.372;8.512;2024-03-08T05:26:36;52.97;;;26.27;;
6442;SDS011;3254;47.372;8.512;2024-03-08T05:29:02;55.42;;;25.65;;
6442;SDS011;3254;47.372;8.512;2024-03-08T05:31:28;53.03;;;24.63;;
6442;SDS011;3254;47.372;8.512;2024-03-08T05:33:54;53.90;;;26.73;;
6442;SDS011;3254;47.372;8.512;2024-03-08T05:36:20;50.10;;;24.67;;
6442;SDS011;3254;47.372;8.512;2024-03-08T05:38:46;53.25;;;26.15;;
6442;SDS011;3254;47.372;8.512;2024-03-08T05:41:11;46.30;;;23.40;;
6442;SDS011;3254;47.372;8.512;2024-03-08T05:43:37;50.57;;;24.37;;
6442;SDS011;3254;47.372;8.512;2024-03-08T05:46:03;48.13;;;23.23;;
6442;SDS011;3254;47.372;8.512;2024-03-08T05:48:29;49.78;;;23.77;;
6442;SDS011;3254;47.372;8.512;2024-03-08T05:50:57;49.08;;;24.50;;
6442;SDS011;3254;47.372;8.512;2024-03-08T05:53:22;55.03;;;24.20;;
6442;SDS011;3254;47.372;8.512;2024-03-08T05:55:47;57.03;;;26.60;;
6442;SDS011;3254;47.372;8.512;2024-03-08T05:58:14;44.45;;;24.20;;
6442;SDS011;3254;47.372;8.512;2024-03-08T06:00:40;51.13;;;24.20;;
6442;SDS011;3254;47.372;8.512;2024-03-08T06:03:05;48.57;;;24.07;;
6442;SDS011;3254;47.372;8.512;2024-03-08T06:05:30;47.73;;;23.20;;
6442;SDS011;3254;47.372;8.512;2024-03-08T06:07:56;48.20;;;23.90;;
6442;SDS011;3254;47.372;8.512;2024-03-08T06:10:21;54.60;;;25.97;;
6442;SDS011;3254;47.372;8.512;2024-03-08T06:12:47;52.33;;;23.60;;
6442;SDS011;3254;47.372;8.512;2024-03-08T06:15:12;56.03;;;24.37;;
6442;SDS011;3254;47.372;8.512;2024-03-08T06:17:41;50.25;;;24.58;;
6442;SDS011;3254;47.372;8.512;2024-03-08T06:20:06;51.53;;;23.83;;
6442;SDS011;3254;47.372;8.512;2024-03-08T06:22:36;48.13;;;22.98;;
6442;SDS011;3254;47.372;8.512;2024-03-08T06:25:03;46.00;;;22.17;;
6442;SDS011;3254;47.372;8.512;2024-03-08T06:27:28;46.27;;;21.47;;
6442;SDS011;3254;47.372;8.512;2024-03-08T06:29:54;47.23;;;21.53;;
6442;SDS011;3254;47.372;8.512;2024-03-08T06:32:19;42.47;;;22.37;;
6442;SDS011;3254;47.372;8.512;2024-03-08T06:34:44;36.90;;;20.47;;
6442;SDS011;3254;47.372;8.512;2024-03-08T06:37:10;45.80;;;21.47;;
6442;SDS011;3254;47.372;8.512;2024-03-08T06:39:35;40.23;;;21.60;;
6442;SDS011;3254;47.372;8.512;2024-03-08T06:42:01;44.80;;;21.70;;
6442;SDS011;3254;47.372;8.512;2024-03-08T06:44:26;41.33;;;20.90;;
6442;SDS011;3254;47.372;8.512;2024-03-08T06:46:52;44.13;;;21.23;;
6442;SDS011;3254;47.372;8.512;2024-03-08T06:49:17;48.83;;;21.13;;
6442;SDS011;3254;47.372;8.512;2024-03-08T06:51:44;41.53;;;21.83;;
6442;SDS011;3254;47.372;8.512;2024-03-08T06:54:09;49.43;;;21.97;;
6442;SDS011;3254;47.372;8.512;2024-03-08T06:56:34;41.33;;;19.77;;
6442;SDS011;3254;47.372;8.512;2024-03-08T06:59:00;39.50;;;20.30;;
6442;SDS011;3254;47.372;8.512;2024-03-08T07:01:28;40.50;;;19.92;;
6442;SDS011;3254;47.372;8.512;2024-03-08T07:03:56;44.63;;;20.48;;
6442;SDS011;3254;47.372;8.512;2024-03-08T07:06:22;43.03;;;22.53;;
6442;SDS011;3254;47.372;8.512;2024-03-08T07:08:47;44.20;;;22.67;;
6442;SDS011;3254;47.372;8.512;2024-03-08T07:11:13;39.90;;;19.60;;
6442;SDS011;3254;47.372;8.512;2024-03-08T07:13:43;44.55;;;19.08;;
6442;SDS011;3254;47.372;8.512;2024-03-08T07:16:09;36.73;;;19.87;;
6442;SDS011;3254;47.372;8.512;2024-03-08T07:18:35;45.10;;;19.80;;
6442;SDS011;3254;47.372;8.512;2024-03-08T07:21:04;42.53;;;20.05;;
6442;SDS011;3254;47.372;8.512;2024-03-08T07:23:30;36.23;;;18.17;;
6442;SDS011;3254;47.372;8.512;2024-03-08T07:26:16;38.80;;;19.77;;
6442;SDS011;3254;47.372;8.512;2024-03-08T07:28:43;34.65;;;18.50;;
6442;SDS011;3254;47.372;8.512;2024-03-08T07:31:09;29.80;;;16.60;;
6442;SDS011;3254;47.372;8.512;2024-03-08T07:33:37;35.78;;;17.70;;
6442;SDS011;3254;47.372;8.512;2024-03-08T07:36:03;30.08;;;16.73;;
6442;SDS011;3254;47.372;8.512;2024-03-08T07:38:28;32.73;;;16.30;;
6442;SDS011;3254;47.372;8.512;2024-03-08T07:40:54;30.57;;;17.17;;
6442;SDS011;3254;47.372;8.512;2024-03-08T07:43:22;33.67;;;17.08;;
6442;SDS011;3254;47.372;8.512;2024-03-08T07:45:47;32.20;;;17.57;;
6442;SDS011;3254;47.372;8.512;2024-03-08T07:48:12;36.77;;;17.63;;
6442;SDS011;3254;47.372;8.512;2024-03-08T07:50:38;24.73;;;16.10;;
6442;SDS011;3254;47.372;8.512;2024-03-08T07:53:04;29.08;;;16.00;;
6442;SDS011;3254;47.372;8.512;2024-03-08T07:55:31;38.80;;;17.25;;
6442;SDS011;3254;47.372;8.512;2024-03-08T07:57:57;28.15;;;16.50;;
6442;SDS011;3254;47.372;8.512;2024-03-08T08:00:23;30.33;;;16.43;;
6442;SDS011;3254;47.372;8.512;2024-03-08T08:02:49;30.08;;;16.42;;
6442;SDS011;3254;47.372;8.512;2024-03-08T08:05:15;31.93;;;16.33;;
6442;SDS011;3254;47.372;8.512;2024-03-08T08:07:43;32.72;;;17.40;;
6442;SDS011;3254;47.372;8.512;2024-03-08T08:10:09;28.02;;;16.42;;
6442;SDS011;3254;47.372;8.512;2024-03-08T08:12:41;31.30;;;17.08;;
6442;SDS011;3254;47.372;8.512;2024-03-08T08:15:07;29.97;;;16.37;;
6442;SDS011;3254;47.372;8.512;2024-03-08T08:17:33;31.93;;;16.77;;
6442;SDS011;3254;47.372;8.512;2024-03-08T08:19:59;28.75;;;16.17;;
6442;SDS011;3254;47.372;8.512;2024-03-08T08:22:25;31.37;;;16.40;;
6442;SDS011;3254;47.372;8.512;2024-03-08T08:24:50;31.50;;;16.53;;
6442;SDS011;3254;47.372;8.512;2024-03-08T08:27:17;30.33;;;17.02;;
6442;SDS011;3254;47.372;8.512;2024-03-08T08:29:42;30.93;;;17.03;;
6442;SDS011;3254;47.372;8.512;2024-03-08T08:32:08;27.60;;;16.10;;
6442;SDS011;3254;47.372;8.512;2024-03-08T08:34:34;33.65;;;16.60;;
6442;SDS011;3254;47.372;8.512;2024-03-08T08:36:59;26.77;;;15.93;;
6442;SDS011;3254;47.372;8.512;2024-03-08T08:39:25;26.67;;;15.20;;
6442;SDS011;3254;47.372;8.512;2024-03-08T08:41:51;28.33;;;16.67;;
6442;SDS011;3254;47.372;8.512;2024-03-08T08:44:16;28.07;;;16.77;;
6442;SDS011;3254;47.372;8.512;2024-03-08T08:46:42;28.47;;;16.17;;
6442;SDS011;3254;47.372;8.512;2024-03-08T08:49:07;29.53;;;15.93;;
6442;SDS011;3254;47.372;8.512;2024-03-08T08:51:35;30.83;;;16.90;;
6442;SDS011;3254;47.372;8.512;2024-03-08T08:54:01;27.95;;;16.25;;
6442;SDS011;3254;47.372;8.512;2024-03-08T08:56:27;28.90;;;16.60;;
6442;SDS011;3254;47.372;8.512;2024-03-08T08:58:53;27.20;;;14.98;;
6442;SDS011;3254;47.372;8.512;2024-03-08T09:01:19;29.80;;;14.70;;
6442;SDS011;3254;47.372;8.512;2024-03-08T09:03:45;26.95;;;14.68;;
6442;SDS011;3254;47.372;8.512;2024-03-08T09:06:16;28.25;;;16.50;;
6442;SDS011;3254;47.372;8.512;2024-03-08T09:08:42;24.73;;;14.40;;
6442;SDS011;3254;47.372;8.512;2024-03-08T09:11:09;25.90;;;15.05;;
6442;SDS011;3254;47.372;8.512;2024-03-08T09:13:35;27.50;;;14.70;;
6442;SDS011;3254;47.372;8.512;2024-03-08T09:16:01;29.50;;;16.50;;
6442;SDS011;3254;47.372;8.512;2024-03-08T09:18:27;26.88;;;15.25;;
6442;SDS011;3254;47.372;8.512;2024-03-08T09:20:53;26.73;;;13.73;;
6442;SDS011;3254;47.372;8.512;2024-03-08T09:23:21;25.37;;;15.97;;
6442;SDS011;3254;47.372;8.512;2024-03-08T09:25:47;29.97;;;16.60;;
6442;SDS011;3254;47.372;8.512;2024-03-08T09:28:12;24.80;;;14.50;;
6442;SDS011;3254;47.372;8.512;2024-03-08T09:30:39;25.43;;;15.20;;
6442;SDS011;3254;47.372;8.512;2024-03-08T09:33:05;27.47;;;16.33;;
6442;SDS011;3254;47.372;8.512;2024-03-08T09:35:30;19.93;;;13.70;;
6442;SDS011;3254;47.372;8.512;2024-03-08T09:37:56;20.50;;;13.63;;
6442;SDS011;3254;47.372;8.512;2024-03-08T09:40:21;21.57;;;13.80;;
6442;SDS011;3254;47.372;8.512;2024-03-08T09:42:49;19.30;;;13.30;;
6442;SDS011;3254;47.372;8.512;2024-03-08T09:45:14;23.30;;;13.73;;
6442;SDS011;3254;47.372;8.512;2024-03-08T09:47:44;28.97;;;15.00;;
6442;SDS011;3254;47.372;8.512;2024-03-08T09:50:10;25.07;;;14.30;;
6442;SDS011;3254;47.372;8.512;2024-03-08T09:52:40;23.80;;;14.10;;
6442;SDS011;3254;47.372;8.512;2024-03-08T09:55:11;25.83;;;14.13;;
6442;SDS011;3254;47.372;8.512;2024-03-08T09:57:37;27.73;;;14.00;;
6442;SDS011;3254;47.372;8.512;2024-03-08T10:00:03;23.40;;;13.43;;
6442;SDS011;3254;47.372;8.512;2024-03-08T10:02:46;21.37;;;12.80;;
6442;SDS011;3254;47.372;8.512;2024-03-08T10:05:12;21.97;;;14.50;;
6442;SDS011;3254;47.372;8.512;2024-03-08T10:07:38;24.07;;;14.40;;
6442;SDS011;3254;47.372;8.512;2024-03-08T10:10:05;22.87;;;14.20;;
6442;SDS011;3254;47.372;8.512;2024-03-08T10:12:33;20.00;;;12.50;;
6442;SDS011;3254;47.372;8.512;2024-03-08T10:14:59;22.07;;;13.10;;
6442;SDS011;3254;47.372;8.512;2024-03-08T10:17:25;23.77;;;13.97;;
6442;SDS011;3254;47.372;8.512;2024-03-08T10:19:51;24.77;;;15.67;;
6442;SDS011;3254;47.372;8.512;2024-03-08T10:22:18;28.70;;;15.43;;
6442;SDS011;3254;47.372;8.512;2024-03-08T10:24:45;25.87;;;14.37;;
6442;SDS011;3254;47.372;8.512;2024-03-08T10:27:13;23.57;;;14.60;;
6442;SDS011;3254;47.372;8.512;2024-03-08T10:29:41;30.23;;;16.10;;
6442;SDS011;3254;47.372;8.512;2024-03-08T10:32:09;27.37;;;16.50;;
6442;SDS011;3254;47.372;8.512;2024-03-08T10:34:35;26.77;;;15.27;;
6442;SDS011;3254;47.372;8.512;2024-03-08T10:37:03;23.20;;;15.07;;
6442;SDS011;3254;47.372;8.512;2024-03-08T10:39:37;24.33;;;15.13;;
6442;SDS011;3254;47.372;8.512;2024-03-08T10:42:03;29.70;;;15.60;;
6442;SDS011;3254;47.372;8.512;2024-03-08T10:47:01;21.07;;;14.73;;
6442;SDS011;3254;47.372;8.512;2024-03-08T10:49:30;28.00;;;16.67;;
6442;SDS011;3254;47.372;8.512;2024-03-08T10:52:01;22.73;;;15.73;;
6442;SDS011;3254;47.372;8.512;2024-03-08T10:54:28;21.77;;;14.33;;
6442;SDS011;3254;47.372;8.512;2024-03-08T10:56:54;22.77;;;15.07;;
6442;SDS011;3254;47.372;8.512;2024-03-08T10:59:20;25.63;;;15.40;;
6442;SDS011;3254;47.372;8.512;2024-03-08T11:01:46;22.73;;;14.40;;
6442;SDS011;3254;47.372;8.512;2024-03-08T11:04:11;21.23;;;14.77;;
6442;SDS011;3254;47.372;8.512;2024-03-08T11:09:02;20.80;;;14.47;;
6442;SDS011;3254;47.372;8.512;2024-03-08T11:11:31;20.40;;;13.90;;
6442;SDS011;3254;47.372;8.512;2024-03-08T11:13:59;19.03;;;14.00;;
6442;SDS011;3254;47.372;8.512;2024-03-08T11:18:57;25.20;;;16.07;;
6442;SDS011;3254;47.372;8.512;2024-03-08T11:21:32;24.03;;;15.27;;
6442;SDS011;3254;47.372;8.512;2024-03-08T11:24:14;20.50;;;14.50;;
6442;SDS011;3254;47.372;8.512;2024-03-08T11:26:41;19.50;;;14.37;;
6442;SDS011;3254;47.372;8.512;2024-03-08T11:34:32;20.30;;;15.40;;
6442;SDS011;3254;47.372;8.512;2024-03-08T11:37:00;21.60;;;14.80;;
6442;SDS011;3254;47.372;8.512;2024-03-08T11:39:26;17.83;;;13.83;;
6442;SDS011;3254;47.372;8.512;2024-03-08T11:41:51;22.17;;;13.60;;
6442;SDS011;3254;47.372;8.512;2024-03-08T11:44:17;22.93;;;15.47;;
6442;SDS011;3254;47.372;8.512;2024-03-08T11:46:42;23.37;;;15.03;;
6442;SDS011;3254;47.372;8.512;2024-03-08T11:49:12;23.03;;;14.73;;
6442;SDS011;3254;47.372;8.512;2024-03-08T11:51:41;20.73;;;14.67;;
6442;SDS011;3254;47.372;8.512;2024-03-08T11:54:10;20.43;;;13.87;;
6442;SDS011;3254;47.372;8.512;2024-03-08T11:56:37;22.67;;;14.83;;
6442;SDS011;3254;47.372;8.512;2024-03-08T11:59:02;20.10;;;14.07;;
6442;SDS011;3254;47.372;8.512;2024-03-08T12:01:28;19.13;;;13.57;;
6442;SDS011;3254;47.372;8.512;2024-03-08T12:03:54;19.87;;;15.27;;
6442;SDS011;3254;47.372;8.512;2024-03-08T12:06:20;17.97;;;14.47;;
6442;SDS011;3254;47.372;8.512;2024-03-08T12:08:46;18.73;;;14.20;;
6442;SDS011;3254;47.372;8.512;2024-03-08T12:11:16;21.60;;;14.33;;
6442;SDS011;3254;47.372;8.512;2024-03-08T12:13:44;21.23;;;14.70;;
6442;SDS011;3254;47.372;8.512;2024-03-08T12:16:11;21.30;;;15.10;;
6442;SDS011;3254;47.372;8.512;2024-03-08T12:18:38;18.77;;;14.63;;
6442;SDS011;3254;47.372;8.512;2024-03-08T12:21:12;18.53;;;13.90;;
6442;SDS011;3254;47.372;8.512;2024-03-08T12:23:45;21.57;;;14.13;;
6442;SDS011;3254;47.372;8.512;2024-03-08T12:26:24;20.40;;;14.23;;
6442;SDS011;3254;47.372;8.512;2024-03-08T12:28:50;20.00;;;15.00;;
6442;SDS011;3254;47.372;8.512;2024-03-08T12:31:17;20.57;;;14.37;;
6442;SDS011;3254;47.372;8.512;2024-03-08T12:33:54;19.10;;;14.07;;
6442;SDS011;3254;47.372;8.512;2024-03-08T12:36:24;22.60;;;16.10;;
6442;SDS011;3254;47.372;8.512;2024-03-08T12:38:50;23.20;;;15.40;;
6442;SDS011;3254;47.372;8.512;2024-03-08T12:41:15;23.03;;;15.33;;
6442;SDS011;3254;47.372;8.512;2024-03-08T12:43:42;22.30;;;14.80;;
6442;SDS011;3254;47.372;8.512;2024-03-08T12:46:13;26.23;;;15.70;;
6442;SDS011;3254;47.372;8.512;2024-03-08T12:48:45;24.40;;;14.50;;
6442;SDS011;3254;47.372;8.512;2024-03-08T12:51:12;22.70;;;15.07;;
6442;SDS011;3254;47.372;8.512;2024-03-08T12:53:44;25.90;;;15.13;;
6442;SDS011;3254;47.372;8.512;2024-03-08T12:56:10;21.20;;;13.53;;
6442;SDS011;3254;47.372;8.512;2024-03-08T12:58:44;19.50;;;14.90;;
6442;SDS011;3254;47.372;8.512;2024-03-08T13:01:10;24.93;;;14.30;;
6442;SDS011;3254;47.372;8.512;2024-03-08T13:03:37;17.70;;;13.10;;
6442;SDS011;3254;47.372;8.512;2024-03-08T13:06:05;18.20;;;13.53;;
6442;SDS011;3254;47.372;8.512;2024-03-08T13:08:36;18.70;;;13.57;;
6442;SDS011;3254;47.372;8.512;2024-03-08T13:11:06;18.97;;;13.73;;
6442;SDS011;3254;47.372;8.512;2024-03-08T13:13:39;20.67;;;15.00;;
6442;SDS011;3254;47.372;8.512;2024-03-08T13:16:05;21.80;;;14.70;;
6442;SDS011;3254;47.372;8.512;2024-03-08T13:18:36;20.90;;;14.43;;
6442;SDS011;3254;47.372;8.512;2024-03-08T13:21:02;19.77;;;13.87;;
6442;SDS011;3254;47.372;8.512;2024-03-08T13:23:31;20.83;;;15.20;;
6442;SDS011;3254;47.372;8.512;2024-03-08T13:25:57;24.73;;;15.70;;
6442;SDS011;3254;47.372;8.512;2024-03-08T13:28:22;17.53;;;14.00;;
6442;SDS011;3254;47.372;8.512;2024-03-08T13:30:48;20.60;;;14.57;;
6442;SDS011;3254;47.372;8.512;2024-03-08T13:33:14;25.13;;;14.70;;
6442;SDS011;3254;47.372;8.512;2024-03-08T13:35:39;16.40;;;13.37;;
6442;SDS011;3254;47.372;8.512;2024-03-08T13:38:06;19.30;;;14.00;;
6442;SDS011;3254;47.372;8.512;2024-03-08T13:40:34;18.13;;;13.40;;
6442;SDS011;3254;47.372;8.512;2024-03-08T13:42:59;19.40;;;13.83;;
6442;SDS011;3254;47.372;8.512;2024-03-08T13:45:25;14.60;;;12.37;;
6442;SDS011;3254;47.372;8.512;2024-03-08T13:47:52;21.53;;;13.90;;
6442;SDS011;3254;47.372;8.512;2024-03-08T13:50:19;18.40;;;13.43;;
6442;SDS011;3254;47.372;8.512;2024-03-08T13:52:47;22.07;;;14.47;;
6442;SDS011;3254;47.372;8.512;2024-03-08T13:55:19;16.20;;;12.40;;
6442;SDS011;3254;47.372;8.512;2024-03-08T13:57:45;17.30;;;12.83;;
6442;SDS011;3254;47.372;8.512;2024-03-08T14:00:11;18.33;;;12.97;;
6442;SDS011;3254;47.372;8.512;2024-03-08T14:02:37;20.27;;;13.80;;
6442;SDS011;3254;47.372;8.512;2024-03-08T14:05:06;23.33;;;13.57;;
6442;SDS011;3254;47.372;8.512;2024-03-08T14:07:34;17.53;;;13.33;;
6442;SDS011;3254;47.372;8.512;2024-03-08T14:10:02;20.07;;;14.10;;
6442;SDS011;3254;47.372;8.512;2024-03-08T14:12:28;19.70;;;14.20;;
6442;SDS011;3254;47.372;8.512;2024-03-08T14:14:53;17.43;;;13.43;;
6442;SDS011;3254;47.372;8.512;2024-03-08T14:17:19;18.73;;;13.77;;
6442;SDS011;3254;47.372;8.512;2024-03-08T14:19:44;16.80;;;12.53;;
6442;SDS011;3254;47.372;8.512;2024-03-08T14:22:10;18.20;;;13.47;;
6442;SDS011;3254;47.372;8.512;2024-03-08T14:24:42;21.00;;;13.10;;
6442;SDS011;3254;47.372;8.512;2024-03-08T14:27:08;16.37;;;12.40;;
6442;SDS011;3254;47.372;8.512;2024-03-08T14:29:34;15.67;;;12.67;;
6442;SDS011;3254;47.372;8.512;2024-03-08T14:32:03;15.70;;;11.80;;
6442;SDS011;3254;47.372;8.512;2024-03-08T14:34:31;18.17;;;13.23;;
6442;SDS011;3254;47.372;8.512;2024-03-08T14:36:58;18.20;;;12.90;;
6442;SDS011;3254;47.372;8.512;2024-03-08T14:39:25;15.93;;;13.47;;
6442;SDS011;3254;47.372;8.512;2024-03-08T14:41:51;17.80;;;11.23;;
6442;SDS011;3254;47.372;8.512;2024-03-08T14:44:21;19.00;;;13.33;;
6442;SDS011;3254;47.372;8.512;2024-03-08T14:46:50;15.77;;;12.17;;
6442;SDS011;3254;47.372;8.512;2024-03-08T14:49:16;20.17;;;12.67;;
6442;SDS011;3254;47.372;8.512;2024-03-08T14:51:41;23.20;;;10.97;;
6442;SDS011;3254;47.372;8.512;2024-03-08T14:54:07;16.80;;;12.00;;
6442;SDS011;3254;47.372;8.512;2024-03-08T14:56:36;19.50;;;11.87;;
6442;SDS011;3254;47.372;8.512;2024-03-08T14:59:02;18.33;;;12.23;;